X  Luk Metar data     LGRX Patras Araxos Agamemnon Airport
Temperatur
75°F Temperatur
52°F Duggpunkt
44% Fugtighed



Vind
0 MPT
0 KM/T
0 M/S
0 KNOB



Stille
N
Nuværende forhold

Klart Klart
Tryk 1016.92 (hPa) - 30.03 (inHg)
Sigt 6.2 (mil) - 10 (km)
Lufthavn
Lufthavnskode LGRX

Lokation: Patras Araxos Agamemnon Airport
Afstand: 108 (mi)

Metar:
LGRX 251520Z 00000KT CAVOK 24/11 Q1017

Tid: 25-09-2022 18:20 EEST